createdAt,value
2022-07-28T00:01:38.254Z,28.04
2022-07-28T00:04:05.132Z,28.17
2022-07-28T00:06:31.746Z,28.05
2022-07-28T00:08:58.332Z,28.00
2022-07-28T00:11:24.948Z,27.85
2022-07-28T00:13:51.541Z,28.07
2022-07-28T00:16:18.279Z,28.09
2022-07-28T00:18:45.363Z,28.17
2022-07-28T00:21:11.961Z,28.16
2022-07-28T00:23:39.815Z,28.22
2022-07-28T00:26:10.162Z,28.72
2022-07-28T00:28:36.802Z,28.64
2022-07-28T00:31:05.273Z,28.62
2022-07-28T00:33:34.113Z,28.73
2022-07-28T00:36:00.690Z,28.75
2022-07-28T00:38:27.344Z,28.87
2022-07-28T00:41:12.460Z,28.81
2022-07-28T00:43:46.069Z,28.94
2022-07-28T00:46:14.218Z,29.00
2022-07-28T00:48:44.901Z,29.12
2022-07-28T00:51:11.658Z,29.20
2022-07-28T00:53:38.660Z,29.25
2022-07-28T00:56:06.972Z,29.40
2022-07-28T00:58:35.301Z,29.38
2022-07-28T01:01:01.913Z,29.73
2022-07-28T01:03:28.515Z,29.73
2022-07-28T01:06:06.237Z,30.02
2022-07-28T01:09:15.158Z,30.08
2022-07-28T01:12:07.083Z,30.27
2022-07-28T01:14:49.209Z,30.59
2022-07-28T01:17:27.590Z,30.87
2022-07-28T01:20:00.585Z,30.82
2022-07-28T01:22:29.446Z,30.96
2022-07-28T01:25:31.456Z,31.22
2022-07-28T01:28:41.214Z,31.38
2022-07-28T01:31:07.933Z,31.37
2022-07-28T01:33:49.091Z,31.59
2022-07-28T01:36:17.622Z,31.58
2022-07-28T01:38:44.385Z,32.02
2022-07-28T01:41:19.905Z,31.84
2022-07-28T01:43:48.581Z,31.76
2022-07-28T01:46:15.306Z,32.18
2022-07-28T01:48:42.501Z,32.58
2022-07-28T01:51:09.151Z,32.78
2022-07-28T01:53:37.651Z,32.99
2022-07-28T01:56:05.096Z,32.71
2022-07-28T01:58:31.710Z,32.37
2022-07-28T02:00:58.845Z,32.57
2022-07-28T02:03:25.516Z,32.32
2022-07-28T02:05:53.097Z,32.75
2022-07-28T02:08:19.764Z,32.87
2022-07-28T02:11:09.848Z,33.09
2022-07-28T02:13:37.054Z,33.01
2022-07-28T02:16:04.830Z,33.10
2022-07-28T02:18:31.517Z,33.08
2022-07-28T02:20:58.876Z,32.95
2022-07-28T02:23:25.469Z,32.93
2022-07-28T02:25:52.400Z,32.92
2022-07-28T02:28:19.512Z,32.61
2022-07-28T02:30:48.477Z,32.97
2022-07-28T02:33:16.527Z,33.33
2022-07-28T02:36:10.774Z,33.38
2022-07-28T02:38:42.227Z,33.14
2022-07-28T02:41:12.085Z,33.59
2022-07-28T02:43:49.620Z,33.40
2022-07-28T02:46:22.277Z,33.19
2022-07-28T02:48:50.603Z,33.33
2022-07-28T02:51:17.478Z,33.25
2022-07-28T02:53:44.047Z,33.39
2022-07-28T02:56:10.667Z,33.65
2022-07-28T02:58:37.315Z,33.42
2022-07-28T03:01:03.965Z,33.56
2022-07-28T03:03:30.629Z,33.73
2022-07-28T03:05:57.318Z,33.18
2022-07-28T03:08:23.921Z,33.02
2022-07-28T03:10:50.513Z,32.97
2022-07-28T03:13:17.132Z,33.01
2022-07-28T03:15:43.716Z,32.91
2022-07-28T03:18:10.325Z,32.69
2022-07-28T03:20:36.901Z,32.60
2022-07-28T03:23:04.233Z,32.95
2022-07-28T03:26:07.042Z,32.79
2022-07-28T03:28:33.710Z,32.92
2022-07-28T03:31:10.590Z,33.15
2022-07-28T03:33:37.158Z,33.31
2022-07-28T03:36:07.453Z,33.16
2022-07-28T03:38:37.555Z,33.53
2022-07-28T03:41:04.148Z,33.44
2022-07-28T03:43:30.748Z,33.88
2022-07-28T03:45:57.467Z,33.55
2022-07-28T03:48:31.982Z,33.89
2022-07-28T03:50:58.892Z,34.00
2022-07-28T03:53:26.431Z,33.64
2022-07-28T03:55:53.794Z,33.67
2022-07-28T03:58:21.556Z,33.43
2022-07-28T04:00:53.004Z,33.57
2022-07-28T04:03:22.051Z,33.69
2022-07-28T04:06:06.495Z,32.95
2022-07-28T04:08:33.175Z,33.04
2022-07-28T04:10:59.798Z,32.63
2022-07-28T04:13:26.397Z,32.58
2022-07-28T04:15:53.016Z,32.11
2022-07-28T04:18:21.707Z,32.08
2022-07-28T04:20:48.298Z,31.77
2022-07-28T04:23:14.917Z,31.99
2022-07-28T04:25:41.551Z,32.29
2022-07-28T04:28:08.152Z,32.18
2022-07-28T04:30:34.853Z,32.53
2022-07-28T04:33:07.346Z,32.42
2022-07-28T04:35:34.883Z,32.31
2022-07-28T04:38:01.515Z,32.79
2022-07-28T04:40:28.333Z,32.62
2022-07-28T04:42:55.375Z,32.72
2022-07-28T04:45:22.025Z,32.82
2022-07-28T04:47:48.691Z,32.83
2022-07-28T04:50:18.077Z,32.82
2022-07-28T04:52:44.683Z,32.49
2022-07-28T04:55:11.354Z,32.81
2022-07-28T04:57:38.538Z,33.15
2022-07-28T05:00:12.702Z,32.83
2022-07-28T05:02:44.657Z,32.70
2022-07-28T05:05:11.609Z,32.56
2022-07-28T05:07:38.791Z,32.56
2022-07-28T05:10:07.944Z,32.16
2022-07-28T05:12:34.565Z,32.12
2022-07-28T05:15:01.187Z,31.98
2022-07-28T05:17:27.763Z,32.23
2022-07-28T05:19:54.426Z,32.28
2022-07-28T05:22:21.043Z,31.76
2022-07-28T05:24:47.684Z,31.71
2022-07-28T05:27:14.350Z,31.89
2022-07-28T05:29:47.097Z,31.34
2022-07-28T05:32:16.472Z,31.13
2022-07-28T05:34:44.271Z,30.84
2022-07-28T05:37:11.009Z,31.40
2022-07-28T05:39:37.633Z,30.68
2022-07-28T05:42:04.502Z,30.46
2022-07-28T05:44:37.281Z,30.49
2022-07-28T05:47:04.769Z,30.28
2022-07-28T05:49:31.613Z,30.30
2022-07-28T05:51:58.256Z,30.17
2022-07-28T05:54:24.922Z,30.35
2022-07-28T05:56:52.665Z,30.13
2022-07-28T05:59:19.281Z,29.89
2022-07-28T06:01:46.115Z,29.96
2022-07-28T06:04:29.078Z,29.59
2022-07-28T06:06:56.433Z,30.25
2022-07-28T06:09:23.086Z,29.63
2022-07-28T06:11:52.396Z,29.49
2022-07-28T06:14:19.397Z,29.34
2022-07-28T06:16:50.981Z,29.28
2022-07-28T06:19:18.463Z,28.87
2022-07-28T06:21:45.068Z,28.70
2022-07-28T06:24:12.020Z,28.73
2022-07-28T06:26:44.374Z,28.85
2022-07-28T06:29:11.490Z,29.28
2022-07-28T06:31:39.042Z,28.77
2022-07-28T06:34:05.897Z,28.36
2022-07-28T06:36:32.570Z,28.17
2022-07-28T06:38:59.401Z,28.46
2022-07-28T06:41:26.054Z,28.52
2022-07-28T06:43:52.709Z,28.14
2022-07-28T06:46:19.764Z,27.77
2022-07-28T06:48:46.753Z,27.71
2022-07-28T06:51:15.064Z,27.42
2022-07-28T06:53:41.692Z,27.22
2022-07-28T06:56:10.912Z,26.79
2022-07-28T06:58:40.557Z,27.19
2022-07-28T07:01:07.934Z,26.11
2022-07-28T07:03:34.771Z,25.54
2022-07-28T07:06:01.416Z,24.76
2022-07-28T07:08:28.045Z,23.94
2022-07-28T07:10:54.655Z,23.71
2022-07-28T07:13:21.443Z,23.68
2022-07-28T07:15:48.113Z,23.05
2022-07-28T07:18:14.751Z,21.97
2022-07-28T07:20:41.795Z,21.39
2022-07-28T07:23:08.408Z,21.02
2022-07-28T07:25:35.102Z,21.45
2022-07-28T07:28:01.683Z,20.92
2022-07-28T07:30:28.376Z,20.71
2022-07-28T07:32:55.230Z,21.08
2022-07-28T07:35:21.868Z,20.37
2022-07-28T07:37:48.460Z,20.60
2022-07-28T07:40:15.073Z,21.16
2022-07-28T07:42:41.781Z,21.04
2022-07-28T07:45:08.887Z,21.48
2022-07-28T07:47:35.746Z,21.59
2022-07-28T07:50:04.330Z,20.38
2022-07-28T07:52:31.320Z,19.09
2022-07-28T07:54:57.918Z,18.81
2022-07-28T07:57:24.501Z,18.71
2022-07-28T07:59:51.122Z,17.96
2022-07-28T08:02:17.776Z,17.99
2022-07-28T08:04:44.420Z,18.33
2022-07-28T08:07:11.362Z,18.34
2022-07-28T08:09:38.599Z,18.30
2022-07-28T08:12:05.647Z,18.39
2022-07-28T08:14:32.245Z,18.82
2022-07-28T08:16:59.615Z,18.64
2022-07-28T08:19:26.408Z,18.37
2022-07-28T08:21:53.244Z,18.45
2022-07-28T08:24:32.618Z,18.53
2022-07-28T08:27:01.307Z,17.20
2022-07-28T08:29:27.920Z,16.65
2022-07-28T08:31:54.615Z,15.50
2022-07-28T08:34:26.191Z,14.87
2022-07-28T08:36:58.594Z,15.31
2022-07-28T08:39:25.198Z,13.75
2022-07-28T08:41:58.621Z,13.35
2022-07-28T08:44:31.620Z,13.21
2022-07-28T08:46:58.316Z,13.45
2022-07-28T08:49:25.020Z,12.74
2022-07-28T08:51:51.716Z,12.26
2022-07-28T08:54:21.662Z,11.94
2022-07-28T08:56:48.479Z,11.68
2022-07-28T08:59:15.166Z,11.28
2022-07-28T09:01:41.807Z,11.27
2022-07-28T09:04:09.041Z,11.17
2022-07-28T09:06:36.659Z,11.74
2022-07-28T09:09:03.328Z,11.91
2022-07-28T09:11:29.969Z,13.32
2022-07-28T09:13:56.631Z,12.68
2022-07-28T09:16:23.330Z,12.29
2022-07-28T09:18:49.988Z,12.81
2022-07-28T09:21:16.639Z,12.98
2022-07-28T09:23:48.036Z,12.15
2022-07-28T09:26:14.889Z,12.68
2022-07-28T09:28:55.150Z,12.86
2022-07-28T09:31:22.645Z,11.40
2022-07-28T09:34:05.066Z,11.20
2022-07-28T09:36:39.580Z,10.87
2022-07-28T09:39:06.228Z,10.79
2022-07-28T09:41:49.510Z,10.66
2022-07-28T09:44:19.902Z,10.95
2022-07-28T09:46:46.738Z,11.68
2022-07-28T09:49:13.985Z,11.49
2022-07-28T09:51:41.277Z,11.87
2022-07-28T09:54:15.269Z,11.70
2022-07-28T09:56:44.071Z,12.12
2022-07-28T09:59:12.118Z,11.26
2022-07-28T10:02:02.110Z,12.12
2022-07-28T10:04:35.431Z,11.54
2022-07-28T10:07:14.295Z,11.89
2022-07-28T10:09:41.159Z,11.91
2022-07-28T10:12:17.641Z,13.10
2022-07-28T10:14:46.231Z,12.80
2022-07-28T10:17:31.612Z,12.80
2022-07-28T10:20:06.245Z,13.35
2022-07-28T10:22:36.371Z,12.34
2022-07-28T10:25:07.710Z,12.56
2022-07-28T10:27:34.315Z,13.06
2022-07-28T10:30:02.189Z,13.38
2022-07-28T10:32:32.060Z,13.22
2022-07-28T10:35:10.007Z,13.42
2022-07-28T10:37:52.697Z,13.18
2022-07-28T10:40:21.176Z,13.11
2022-07-28T10:42:47.842Z,14.19
2022-07-28T10:45:15.478Z,13.96
2022-07-28T10:47:42.118Z,13.95
2022-07-28T10:50:09.342Z,13.09
2022-07-28T10:52:56.081Z,13.80
2022-07-28T10:55:46.034Z,13.69
2022-07-28T10:58:25.231Z,13.47
2022-07-28T11:00:56.750Z,13.50
2022-07-28T11:03:44.514Z,13.39
2022-07-28T11:06:24.471Z,13.56
2022-07-28T11:08:53.646Z,13.92
2022-07-28T11:11:46.023Z,13.71
2022-07-28T11:14:25.456Z,13.61
2022-07-28T11:17:01.312Z,13.36
2022-07-28T11:19:42.333Z,13.71
2022-07-28T11:22:19.525Z,13.19
2022-07-28T11:24:58.514Z,13.46
2022-07-28T11:27:45.839Z,14.37
2022-07-28T11:30:47.522Z,13.47
2022-07-28T11:33:14.199Z,13.59
2022-07-28T11:35:40.915Z,14.17
2022-07-28T11:38:09.166Z,14.64
2022-07-28T11:40:38.812Z,14.77
2022-07-28T11:43:37.104Z,14.48
2022-07-28T11:46:07.740Z,14.60
2022-07-28T11:48:37.814Z,14.50
2022-07-28T11:51:04.455Z,14.28
2022-07-28T11:53:46.735Z,15.01
2022-07-28T11:56:23.406Z,15.30
2022-07-28T11:58:57.246Z,15.38
2022-07-28T12:01:23.855Z,15.64
2022-07-28T12:03:56.033Z,15.40
2022-07-28T12:06:35.565Z,16.07
2022-07-28T12:09:03.065Z,16.72
2022-07-28T12:11:34.568Z,16.18
2022-07-28T12:14:07.564Z,16.20
2022-07-28T12:16:35.593Z,16.04
2022-07-28T12:19:02.874Z,15.95
2022-07-28T12:21:48.306Z,16.33
2022-07-28T12:24:16.812Z,16.50
2022-07-28T12:26:49.167Z,16.62
2022-07-28T12:29:16.998Z,16.36
2022-07-28T12:32:04.861Z,16.57
2022-07-28T12:34:33.166Z,16.32
2022-07-28T12:37:02.296Z,16.44
2022-07-28T12:39:30.827Z,16.38
2022-07-28T12:42:05.376Z,16.15
2022-07-28T12:44:36.090Z,15.28
2022-07-28T12:47:03.026Z,15.72
2022-07-28T12:49:29.656Z,15.05
2022-07-28T12:51:58.538Z,15.01
2022-07-28T12:54:36.182Z,14.72
2022-07-28T12:57:02.862Z,15.21
2022-07-28T12:59:36.258Z,15.95
2022-07-28T13:02:03.085Z,15.73
2022-07-28T13:04:41.192Z,16.06
2022-07-28T13:07:13.167Z,15.51
2022-07-28T13:09:53.247Z,15.25
2022-07-28T13:12:27.304Z,15.29
2022-07-28T13:14:55.447Z,15.22
2022-07-28T13:17:26.538Z,16.21
2022-07-28T13:20:06.632Z,16.67
2022-07-28T13:22:33.396Z,16.21
2022-07-28T13:25:00.068Z,16.80
2022-07-28T13:27:26.903Z,16.62
2022-07-28T13:29:53.609Z,17.04
2022-07-28T13:32:20.535Z,16.59
2022-07-28T13:34:47.195Z,16.02
2022-07-28T13:37:14.628Z,16.06
2022-07-28T13:39:41.415Z,15.96
2022-07-28T13:42:08.164Z,15.65
2022-07-28T13:44:37.401Z,15.94
2022-07-28T13:47:05.767Z,15.83
2022-07-28T13:49:33.605Z,16.20
2022-07-28T13:52:01.196Z,16.08
2022-07-28T13:54:27.994Z,15.97
2022-07-28T13:56:54.581Z,16.75
2022-07-28T13:59:21.260Z,16.48
2022-07-28T14:01:49.696Z,16.80
2022-07-28T14:04:17.738Z,16.81
2022-07-28T14:06:45.369Z,16.62
2022-07-28T14:09:12.323Z,16.73
2022-07-28T14:11:41.371Z,17.05
2022-07-28T14:14:20.129Z,16.90
2022-07-28T14:16:48.015Z,17.21
2022-07-28T14:19:16.633Z,17.05
2022-07-28T14:21:50.361Z,17.26
2022-07-28T14:24:17.683Z,17.59
2022-07-28T14:26:44.500Z,17.47
2022-07-28T14:29:11.768Z,17.01
2022-07-28T14:31:38.686Z,17.12
2022-07-28T14:34:05.403Z,17.46
2022-07-28T14:36:32.006Z,17.44
2022-07-28T14:38:58.674Z,17.48
2022-07-28T14:41:25.939Z,17.54
2022-07-28T14:43:52.945Z,17.64
2022-07-28T14:46:21.637Z,17.90
2022-07-28T14:48:48.838Z,18.10
2022-07-28T14:51:15.548Z,18.11
2022-07-28T14:53:51.461Z,18.25
2022-07-28T14:56:18.847Z,18.32
2022-07-28T14:58:45.449Z,18.40
2022-07-28T15:01:12.063Z,18.31
2022-07-28T15:03:43.501Z,18.12
2022-07-28T15:06:10.635Z,18.17
2022-07-28T15:08:37.292Z,18.20
2022-07-28T15:11:03.925Z,18.54
2022-07-28T15:13:30.497Z,18.08
2022-07-28T15:15:59.855Z,18.13
2022-07-28T15:18:26.657Z,18.12
2022-07-28T15:20:55.336Z,18.20
2022-07-28T15:23:22.350Z,18.39
2022-07-28T15:25:48.968Z,18.43
2022-07-28T15:28:17.561Z,18.39
2022-07-28T15:30:51.645Z,18.41
2022-07-28T15:33:19.716Z,18.39
2022-07-28T15:35:58.077Z,18.05
2022-07-28T15:38:27.405Z,17.91
2022-07-28T15:40:54.012Z,18.30
2022-07-28T15:43:23.853Z,18.50
2022-07-28T15:45:50.986Z,18.04
2022-07-28T15:48:17.605Z,18.11
2022-07-28T15:50:48.415Z,17.93
2022-07-28T15:53:15.920Z,18.12
2022-07-28T15:55:46.232Z,18.52
2022-07-28T15:58:14.315Z,18.38
2022-07-28T16:00:41.013Z,18.51
2022-07-28T16:03:07.690Z,18.67
2022-07-28T16:05:34.408Z,18.22
2022-07-28T16:08:01.023Z,18.21
2022-07-28T16:10:29.093Z,18.08
2022-07-28T16:12:58.715Z,18.35
2022-07-28T16:15:27.055Z,18.30
2022-07-28T16:17:54.382Z,18.50
2022-07-28T16:20:21.002Z,18.87
2022-07-28T16:22:47.712Z,19.03
2022-07-28T16:25:17.564Z,19.19
2022-07-28T16:27:44.519Z,19.17
2022-07-28T16:30:11.661Z,19.05
2022-07-28T16:32:38.901Z,19.00
2022-07-28T16:35:06.745Z,19.13
2022-07-28T16:37:34.127Z,19.19
2022-07-28T16:40:00.755Z,19.59
2022-07-28T16:42:27.454Z,19.46
2022-07-28T16:44:54.115Z,19.29
2022-07-28T16:47:21.353Z,19.36
2022-07-28T16:49:47.964Z,19.52
2022-07-28T16:52:14.950Z,19.67
2022-07-28T16:54:41.949Z,19.75
2022-07-28T16:57:08.762Z,19.70
2022-07-28T16:59:37.647Z,19.59
2022-07-28T17:02:14.836Z,19.73
2022-07-28T17:04:41.444Z,20.00
2022-07-28T17:07:08.455Z,19.71
2022-07-28T17:09:35.083Z,19.77
2022-07-28T17:12:01.726Z,19.61
2022-07-28T17:14:28.457Z,19.90
2022-07-28T17:16:55.063Z,20.02
2022-07-28T17:19:22.239Z,19.91
2022-07-28T17:21:48.905Z,19.69
2022-07-28T17:24:16.137Z,19.85
2022-07-28T17:27:35.374Z,20.03
2022-07-28T17:29:29.698Z,20.05
2022-07-28T17:31:56.290Z,20.22
2022-07-28T17:34:23.928Z,20.28
2022-07-28T17:36:50.609Z,20.39
2022-07-28T17:39:17.226Z,20.32
2022-07-28T17:41:43.858Z,20.37
2022-07-28T17:44:10.537Z,20.76
2022-07-28T17:46:37.178Z,20.58
2022-07-28T17:49:05.647Z,20.51
2022-07-28T17:51:32.456Z,20.46
2022-07-28T17:53:59.189Z,20.24
2022-07-28T17:56:26.099Z,20.42
2022-07-28T17:58:52.973Z,20.82
2022-07-28T18:01:19.676Z,21.13
2022-07-28T18:03:58.094Z,21.08
2022-07-28T18:06:30.359Z,21.31
2022-07-28T18:08:57.590Z,21.19
2022-07-28T18:11:27.733Z,21.14
2022-07-28T18:14:04.193Z,21.15
2022-07-28T18:16:32.191Z,21.26
2022-07-28T18:18:58.811Z,21.67
2022-07-28T18:21:26.692Z,21.91
2022-07-28T18:23:54.918Z,21.98
2022-07-28T18:26:22.075Z,21.98
2022-07-28T18:28:48.961Z,21.86
2022-07-28T18:31:15.801Z,21.82
2022-07-28T18:33:42.498Z,21.86
2022-07-28T18:36:09.132Z,21.92
2022-07-28T18:38:35.753Z,22.06
2022-07-28T18:41:02.399Z,22.18
2022-07-28T18:43:29.216Z,22.17
2022-07-28T18:45:55.893Z,22.27
2022-07-28T18:48:25.527Z,22.23
2022-07-28T18:50:52.396Z,22.18
2022-07-28T18:53:19.025Z,22.11
2022-07-28T18:55:45.660Z,22.24
2022-07-28T18:58:12.332Z,22.11
2022-07-28T19:00:38.980Z,22.19
2022-07-28T19:03:06.064Z,22.25
2022-07-28T19:05:37.071Z,22.34
2022-07-28T19:08:05.044Z,22.33
2022-07-28T19:10:32.355Z,22.42
2022-07-28T19:12:59.248Z,22.49
2022-07-28T19:15:25.917Z,22.48
2022-07-28T19:18:10.639Z,22.78
2022-07-28T19:20:44.117Z,22.83
2022-07-28T19:23:10.769Z,22.63
2022-07-28T19:25:38.974Z,22.38
2022-07-28T19:28:05.979Z,22.36
2022-07-28T19:30:32.621Z,22.43
2022-07-28T19:32:59.353Z,22.60
2022-07-28T19:35:26.140Z,22.62
2022-07-28T19:37:52.755Z,22.51
2022-07-28T19:40:19.423Z,22.59
2022-07-28T19:42:48.582Z,22.57
2022-07-28T19:45:15.363Z,22.65
2022-07-28T19:47:42.680Z,22.81
2022-07-28T19:50:09.379Z,22.94
2022-07-28T19:52:37.477Z,23.11
2022-07-28T19:55:05.341Z,23.18
2022-07-28T19:57:32.803Z,23.12
2022-07-28T19:59:59.844Z,23.11
2022-07-28T20:02:26.496Z,23.12
2022-07-28T20:04:53.184Z,23.17
2022-07-28T20:07:19.848Z,23.41
2022-07-28T20:09:46.557Z,23.42
2022-07-28T20:12:13.233Z,23.45
2022-07-28T20:14:39.857Z,23.32
2022-07-28T20:17:06.544Z,23.34
2022-07-28T20:19:33.734Z,23.43
2022-07-28T20:22:00.342Z,23.56
2022-07-28T20:24:27.050Z,23.72
2022-07-28T20:26:53.673Z,23.84
2022-07-28T20:29:20.305Z,23.79
2022-07-28T20:31:46.901Z,23.84
2022-07-28T20:34:15.236Z,23.98
2022-07-28T20:36:42.487Z,24.29
2022-07-28T20:39:34.345Z,24.07
2022-07-28T20:41:55.704Z,24.06
2022-07-28T20:44:30.487Z,24.08
2022-07-28T20:47:00.228Z,24.65
2022-07-28T20:49:28.409Z,24.52
2022-07-28T20:51:55.863Z,24.83
2022-07-28T20:54:22.533Z,24.97
2022-07-28T20:56:49.123Z,24.86
2022-07-28T20:59:15.762Z,25.27
2022-07-28T21:01:42.421Z,25.24
2022-07-28T21:04:11.413Z,25.36
2022-07-28T21:06:38.295Z,25.50
2022-07-28T21:09:05.294Z,25.73
2022-07-28T21:11:35.019Z,25.67
2022-07-28T21:14:02.273Z,25.84
2022-07-28T21:16:28.991Z,25.77
2022-07-28T21:18:55.712Z,25.83
2022-07-28T21:21:22.909Z,25.80
2022-07-28T21:23:49.592Z,25.38
2022-07-28T21:26:16.342Z,25.55
2022-07-28T21:29:01.413Z,25.58
2022-07-28T21:31:27.990Z,25.60
2022-07-28T21:33:54.607Z,25.74
2022-07-28T21:36:21.225Z,25.54
2022-07-28T21:38:47.844Z,25.59
2022-07-28T21:41:14.496Z,25.68
2022-07-28T21:43:41.271Z,25.68
2022-07-28T21:46:07.925Z,25.77
2022-07-28T21:48:34.586Z,25.72
2022-07-28T21:51:01.213Z,25.80
2022-07-28T21:53:27.800Z,25.96
2022-07-28T21:55:54.408Z,25.95
2022-07-28T21:58:21.217Z,26.07
2022-07-28T22:00:47.894Z,26.08
2022-07-28T22:03:14.620Z,26.13
2022-07-28T22:05:41.301Z,26.24
2022-07-28T22:08:09.337Z,26.05
2022-07-28T22:10:35.952Z,26.10
2022-07-28T22:13:02.548Z,26.08
2022-07-28T22:15:29.156Z,26.09
2022-07-28T22:17:55.741Z,26.09
2022-07-28T22:20:22.412Z,26.06
2022-07-28T22:22:49.047Z,26.20
2022-07-28T22:25:15.662Z,26.19
2022-07-28T22:27:42.332Z,26.35
2022-07-28T22:30:09.339Z,26.63
2022-07-28T22:32:35.989Z,26.60
2022-07-28T22:35:02.735Z,26.81
2022-07-28T22:37:29.558Z,26.81
2022-07-28T22:39:56.190Z,27.02
2022-07-28T22:42:22.819Z,27.23
2022-07-28T22:44:49.428Z,27.45
2022-07-28T22:47:16.149Z,27.65
2022-07-28T22:49:42.786Z,27.60
2022-07-28T22:52:09.367Z,27.99
2022-07-28T22:54:39.539Z,27.96
2022-07-28T22:57:06.459Z,27.51
2022-07-28T22:59:38.663Z,27.38
2022-07-28T23:02:07.176Z,27.45
2022-07-28T23:04:33.912Z,27.92
2022-07-28T23:07:00.586Z,27.55
2022-07-28T23:09:27.425Z,27.66
2022-07-28T23:11:55.801Z,27.49
2022-07-28T23:14:22.691Z,27.40
2022-07-28T23:16:49.469Z,27.43
2022-07-28T23:19:16.562Z,27.38
2022-07-28T23:21:43.280Z,27.57
2022-07-28T23:24:09.987Z,27.54
2022-07-28T23:26:36.780Z,27.52
2022-07-28T23:29:03.571Z,27.56
2022-07-28T23:31:30.345Z,27.58
2022-07-28T23:33:57.742Z,27.61
2022-07-28T23:36:26.584Z,27.58
2022-07-28T23:38:55.483Z,27.74
2022-07-28T23:41:22.194Z,28.00
2022-07-28T23:43:48.938Z,28.20
2022-07-28T23:46:15.752Z,28.52
2022-07-28T23:48:42.666Z,28.41
2022-07-28T23:51:09.758Z,28.41
2022-07-28T23:53:37.579Z,28.49
2022-07-28T23:56:04.427Z,28.16
2022-07-28T23:58:31.096Z,28.39
